K-storm — V2DV8 — position and weather

sailwx.info

Track history (hours):
 
Tides and Currents Weather Stations Pressure Air Temp Water Temp Dewpoint Dewpoint Depression Visibility Wind Speed Wind Dir Waves Ship Positions

K-storm

Last reported at 2015-Jan-24 06:11 UTC. Time now 2015-Jan-25 16:20 UTC.
Position N 23°36' W 082°41'.

Length 139 m; draft 7.4 m.

Type: Ship. MMSI: 305350000.

Date/timePositionNaut miles runAvg speedWind from/ knotsBaromVisibWave heightAir tempDewpointWater temp
2015-Jan-24 06:11N 23°36' W 082°41'18812.8
2015-Jan-23 15:33N 25°35' W 080°02'1212.5
2015-Jan-23 14:33N 25°47' W 080°02'1313.1
2015-Jan-23 13:33N 26°00' W 080°02'6 6.0
2015-Jan-23 12:33N 26°04' W 080°07'0 0.0
2015-Jan-23 11:32N 26°04' W 080°07'0 0.0
2015-Jan-23 10:25N 26°04' W 080°07'0 0.0
2015-Jan-23 09:31N 26°04' W 080°07'0 0.0
2015-Jan-23 08:27N 26°04' W 080°07'0 0.0
2015-Jan-23 07:33N 26°04' W 080°07'0 0.0
2015-Jan-23 06:29N 26°04' W 080°07'0 0.0
2015-Jan-23 05:23N 26°04' W 080°07'0 0.0
2015-Jan-23 04:32N 26°04' W 080°07'0 0.0
2015-Jan-23 03:25N 26°04' W 080°07'0 0.0
2015-Jan-23 02:31N 26°04' W 080°07'0 0.0
2015-Jan-23 01:24N 26°04' W 080°07'0 0.0
2015-Jan-23 00:33N 26°04' W 080°07'0 0.0
2015-Jan-22 23:29N 26°04' W 080°07'0 0.0
2015-Jan-22 22:32N 26°04' W 080°07'0 0.0
2015-Jan-22 21:32N 26°04' W 080°07'0 0.0
2015-Jan-22 20:25N 26°04' W 080°07'0 0.0
2015-Jan-22 19:31N 26°04' W 080°07'0 0.0
2015-Jan-22 18:27N 26°04' W 080°07'0 0.0
2015-Jan-22 17:33N 26°04' W 080°07'0 0.0
2015-Jan-22 16:26N 26°04' W 080°07'0 0.0
2015-Jan-22 15:32N 26°04' W 080°07'0 0.0
2015-Jan-22 14:32N 26°04' W 080°07'0 0.0
2015-Jan-22 13:33N 26°04' W 080°07'5 5.3
2015-Jan-22 12:33N 26°04' W 080°01'1212.1
2015-Jan-22 11:33N 25°52' W 079°58'1414.3
2015-Jan-22 10:33N 25°38' W 079°58'  
2015-Jan-16 22:16N 25°24' W 080°02'1013.9
2015-Jan-16 21:33N 25°33' W 080°01'1515.3
2015-Jan-16 20:34N 25°49' W 080°02'1616.1
2015-Jan-16 19:33N 26°05' W 080°05'2 2.2
2015-Jan-16 18:32N 26°04' W 080°07'0 0.0
2015-Jan-16 17:25N 26°04' W 080°07'0 0.0
2015-Jan-16 16:22N 26°04' W 080°07'0 0.0
2015-Jan-16 15:31N 26°04' W 080°07'0 0.0
2015-Jan-16 14:24N 26°04' W 080°07'0 0.0
2015-Jan-16 13:30N 26°04' W 080°07'0 0.0
2015-Jan-16 12:26N 26°04' W 080°07'0 0.0
2015-Jan-16 11:32N 26°04' W 080°07'0 0.0
2015-Jan-16 10:28N 26°04' W 080°07'0 0.0
2015-Jan-16 09:19N 26°04' W 080°07'0 0.5
2015-Jan-16 08:27N 26°04' W 080°07'0 0.0
2015-Jan-16 07:32N 26°04' W 080°07'0 0.0
2015-Jan-16 06:29N 26°04' W 080°07'0 0.0
2015-Jan-16 05:23N 26°04' W 080°07'0 0.0
2015-Jan-16 04:31N 26°04' W 080°07'0 0.0
2015-Jan-16 03:25N 26°04' W 080°07'0 0.0
2015-Jan-16 02:33N 26°04' W 080°07'0 0.0
2015-Jan-16 01:27N 26°04' W 080°07'0 0.0
2015-Jan-16 00:32N 26°04' W 080°07'0 0.0
2015-Jan-15 23:29N 26°04' W 080°07'0 0.0
2015-Jan-15 22:23N 26°04' W 080°07'0 0.0
2015-Jan-15 21:31N 26°04' W 080°07'0 0.0
2015-Jan-15 20:25N 26°04' W 080°07'0 0.0
2015-Jan-15 19:33N 26°04' W 080°07'0 0.0
2015-Jan-15 18:27N 26°04' W 080°07'0 0.0
2015-Jan-15 17:29N 26°04' W 080°07'0 0.0
2015-Jan-15 16:26N 26°04' W 080°07'0 0.0
2015-Jan-15 15:22N 26°04' W 080°07'0 0.0
2015-Jan-15 14:31N 26°04' W 080°07'0 0.0
2015-Jan-15 13:22N 26°04' W 080°07'0 0.0
2015-Jan-15 12:33N 26°04' W 080°07'3 3.2
2015-Jan-15 11:33N 26°06' W 080°04'9 9.2
2015-Jan-15 10:33N 25°59' W 079°57'1010.3
2015-Jan-15 09:33N 25°51' W 079°49'1110.5
2015-Jan-15 08:33N 25°43' W 079°42'  
Track history (hours):
 
Tides and Currents Weather Stations Pressure Air Temp Water Temp Dewpoint Dewpoint Depression Visibility Wind Speed Wind Dir Waves Ship Positions

K-storm

Last reported at 2015-Jan-24 06:11 UTC. Time now 2015-Jan-25 16:20 UTC.
Position N 23°36' W 082°41'.

Length 139 m; draft 7.4 m.

Type: Ship. MMSI: 305350000.

Date/timePositionNaut miles runAvg speedWind from/ knotsBaromVisibWave heightAir tempDewpointWater temp
2015-Jan-24 06:11N 23°36' W 082°41'18812.8
2015-Jan-23 15:33N 25°35' W 080°02'1212.5
2015-Jan-23 14:33N 25°47' W 080°02'1313.1
2015-Jan-23 13:33N 26°00' W 080°02'6 6.0
2015-Jan-23 12:33N 26°04' W 080°07'0 0.0
2015-Jan-23 11:32N 26°04' W 080°07'0 0.0
2015-Jan-23 10:25N 26°04' W 080°07'0 0.0
2015-Jan-23 09:31N 26°04' W 080°07'0 0.0
2015-Jan-23 08:27N 26°04' W 080°07'0 0.0
2015-Jan-23 07:33N 26°04' W 080°07'0 0.0
2015-Jan-23 06:29N 26°04' W 080°07'0 0.0
2015-Jan-23 05:23N 26°04' W 080°07'0 0.0
2015-Jan-23 04:32N 26°04' W 080°07'0 0.0
2015-Jan-23 03:25N 26°04' W 080°07'0 0.0
2015-Jan-23 02:31N 26°04' W 080°07'0 0.0
2015-Jan-23 01:24N 26°04' W 080°07'0 0.0
2015-Jan-23 00:33N 26°04' W 080°07'0 0.0
2015-Jan-22 23:29N 26°04' W 080°07'0 0.0
2015-Jan-22 22:32N 26°04' W 080°07'0 0.0
2015-Jan-22 21:32N 26°04' W 080°07'0 0.0
2015-Jan-22 20:25N 26°04' W 080°07'0 0.0
2015-Jan-22 19:31N 26°04' W 080°07'0 0.0
2015-Jan-22 18:27N 26°04' W 080°07'0 0.0
2015-Jan-22 17:33N 26°04' W 080°07'0 0.0
2015-Jan-22 16:26N 26°04' W 080°07'0 0.0
2015-Jan-22 15:32N 26°04' W 080°07'0 0.0
2015-Jan-22 14:32N 26°04' W 080°07'0 0.0
2015-Jan-22 13:33N 26°04' W 080°07'5 5.3
2015-Jan-22 12:33N 26°04' W 080°01'1212.1
2015-Jan-22 11:33N 25°52' W 079°58'1414.3
2015-Jan-22 10:33N 25°38' W 079°58'  
2015-Jan-16 22:16N 25°24' W 080°02'1013.9
2015-Jan-16 21:33N 25°33' W 080°01'1515.3
2015-Jan-16 20:34N 25°49' W 080°02'1616.1
2015-Jan-16 19:33N 26°05' W 080°05'2 2.2
2015-Jan-16 18:32N 26°04' W 080°07'0 0.0
2015-Jan-16 17:25N 26°04' W 080°07'0 0.0
2015-Jan-16 16:22N 26°04' W 080°07'0 0.0
2015-Jan-16 15:31N 26°04' W 080°07'0 0.0
2015-Jan-16 14:24N 26°04' W 080°07'0 0.0
2015-Jan-16 13:30N 26°04' W 080°07'0 0.0
2015-Jan-16 12:26N 26°04' W 080°07'0 0.0
2015-Jan-16 11:32N 26°04' W 080°07'0 0.0
2015-Jan-16 10:28N 26°04' W 080°07'0 0.0
2015-Jan-16 09:19N 26°04' W 080°07'0 0.5
2015-Jan-16 08:27N 26°04' W 080°07'0 0.0
2015-Jan-16 07:32N 26°04' W 080°07'0 0.0
2015-Jan-16 06:29N 26°04' W 080°07'0 0.0
2015-Jan-16 05:23N 26°04' W 080°07'0 0.0
2015-Jan-16 04:31N 26°04' W 080°07'0 0.0
2015-Jan-16 03:25N 26°04' W 080°07'0 0.0
2015-Jan-16 02:33N 26°04' W 080°07'0 0.0
2015-Jan-16 01:27N 26°04' W 080°07'0 0.0
2015-Jan-16 00:32N 26°04' W 080°07'0 0.0
2015-Jan-15 23:29N 26°04' W 080°07'0 0.0
2015-Jan-15 22:23N 26°04' W 080°07'0 0.0
2015-Jan-15 21:31N 26°04' W 080°07'0 0.0
2015-Jan-15 20:25N 26°04' W 080°07'0 0.0
2015-Jan-15 19:33N 26°04' W 080°07'0 0.0
2015-Jan-15 18:27N 26°04' W 080°07'0 0.0
2015-Jan-15 17:29N 26°04' W 080°07'0 0.0
2015-Jan-15 16:26N 26°04' W 080°07'0 0.0
2015-Jan-15 15:22N 26°04' W 080°07'0 0.0
2015-Jan-15 14:31N 26°04' W 080°07'0 0.0
2015-Jan-15 13:22N 26°04' W 080°07'0 0.0
2015-Jan-15 12:33N 26°04' W 080°07'3 3.2
2015-Jan-15 11:33N 26°06' W 080°04'9 9.2
2015-Jan-15 10:33N 25°59' W 079°57'1010.3
2015-Jan-15 09:33N 25°51' W 079°49'1110.5
2015-Jan-15 08:33N 25°43' W 079°42'  

Dump ship's entire track history